sensor_id;sensor_type;location;lat;lon;timestamp;temperature;humidity
16976;DHT22;8604;48.148;-1.786;2023-07-13T00:01:13;17.10;99.90
16976;DHT22;8604;48.148;-1.786;2023-07-13T00:03:42;17.10;99.90
16976;DHT22;8604;48.148;-1.786;2023-07-13T00:06:10;17.00;99.90
16976;DHT22;8604;48.148;-1.786;2023-07-13T00:08:39;17.00;99.90
16976;DHT22;8604;48.148;-1.786;2023-07-13T00:11:07;17.00;99.90
16976;DHT22;8604;48.148;-1.786;2023-07-13T00:13:38;16.90;99.90
16976;DHT22;8604;48.148;-1.786;2023-07-13T00:16:08;16.90;99.90
16976;DHT22;8604;48.148;-1.786;2023-07-13T00:18:37;16.90;99.90
16976;DHT22;8604;48.148;-1.786;2023-07-13T00:21:06;16.80;99.90
16976;DHT22;8604;48.148;-1.786;2023-07-13T00:23:36;16.80;99.90
16976;DHT22;8604;48.148;-1.786;2023-07-13T00:26:07;16.70;99.90
16976;DHT22;8604;48.148;-1.786;2023-07-13T00:28:37;16.70;99.90
16976;DHT22;8604;48.148;-1.786;2023-07-13T00:31:08;16.70;99.90
16976;DHT22;8604;48.148;-1.786;2023-07-13T00:33:37;16.60;99.90
16976;DHT22;8604;48.148;-1.786;2023-07-13T00:36:06;16.60;99.90
16976;DHT22;8604;48.148;-1.786;2023-07-13T00:38:34;16.60;99.90
16976;DHT22;8604;48.148;-1.786;2023-07-13T00:41:03;16.60;99.90
16976;DHT22;8604;48.148;-1.786;2023-07-13T00:43:32;16.50;99.90
16976;DHT22;8604;48.148;-1.786;2023-07-13T00:46:19;16.50;99.90
16976;DHT22;8604;48.148;-1.786;2023-07-13T00:48:49;16.50;99.90
16976;DHT22;8604;48.148;-1.786;2023-07-13T00:51:21;16.40;99.90
16976;DHT22;8604;48.148;-1.786;2023-07-13T00:53:50;16.40;99.90
16976;DHT22;8604;48.148;-1.786;2023-07-13T00:56:21;16.40;99.90
16976;DHT22;8604;48.148;-1.786;2023-07-13T00:58:50;16.40;99.90
16976;DHT22;8604;48.148;-1.786;2023-07-13T01:01:20;16.40;99.90
16976;DHT22;8604;48.148;-1.786;2023-07-13T01:03:48;16.40;99.90
16976;DHT22;8604;48.148;-1.786;2023-07-13T01:06:17;16.40;99.90
16976;DHT22;8604;48.148;-1.786;2023-07-13T01:08:46;16.30;99.90
16976;DHT22;8604;48.148;-1.786;2023-07-13T01:11:19;16.30;99.90
16976;DHT22;8604;48.148;-1.786;2023-07-13T01:13:48;16.30;99.90
16976;DHT22;8604;48.148;-1.786;2023-07-13T01:16:24;16.30;99.90
16976;DHT22;8604;48.148;-1.786;2023-07-13T01:18:53;16.30;99.90
16976;DHT22;8604;48.148;-1.786;2023-07-13T01:21:25;16.30;99.90
16976;DHT22;8604;48.148;-1.786;2023-07-13T01:23:53;16.30;99.90
16976;DHT22;8604;48.148;-1.786;2023-07-13T01:26:22;16.30;99.90
16976;DHT22;8604;48.148;-1.786;2023-07-13T01:28:50;16.30;99.90
16976;DHT22;8604;48.148;-1.786;2023-07-13T01:31:18;16.30;99.90
16976;DHT22;8604;48.148;-1.786;2023-07-13T01:33:47;16.30;99.90
16976;DHT22;8604;48.148;-1.786;2023-07-13T01:36:15;16.30;99.90
16976;DHT22;8604;48.148;-1.786;2023-07-13T01:38:45;16.30;99.90
16976;DHT22;8604;48.148;-1.786;2023-07-13T01:41:13;16.30;99.90
16976;DHT22;8604;48.148;-1.786;2023-07-13T01:43:41;16.30;99.90
16976;DHT22;8604;48.148;-1.786;2023-07-13T01:46:10;16.30;99.90
16976;DHT22;8604;48.148;-1.786;2023-07-13T01:48:50;16.30;99.90
16976;DHT22;8604;48.148;-1.786;2023-07-13T01:51:19;16.20;99.90
16976;DHT22;8604;48.148;-1.786;2023-07-13T01:53:49;16.30;99.90
16976;DHT22;8604;48.148;-1.786;2023-07-13T01:56:18;16.30;99.90
16976;DHT22;8604;48.148;-1.786;2023-07-13T01:58:47;16.30;99.90
16976;DHT22;8604;48.148;-1.786;2023-07-13T02:01:16;16.30;99.90
16976;DHT22;8604;48.148;-1.786;2023-07-13T02:03:44;16.30;99.90
16976;DHT22;8604;48.148;-1.786;2023-07-13T02:06:13;16.30;99.90
16976;DHT22;8604;48.148;-1.786;2023-07-13T02:08:42;16.30;99.90
16976;DHT22;8604;48.148;-1.786;2023-07-13T02:11:12;16.30;99.90
16976;DHT22;8604;48.148;-1.786;2023-07-13T02:13:40;16.40;99.90
16976;DHT22;8604;48.148;-1.786;2023-07-13T02:16:09;16.40;99.90
16976;DHT22;8604;48.148;-1.786;2023-07-13T02:18:38;16.40;99.90
16976;DHT22;8604;48.148;-1.786;2023-07-13T02:21:06;16.30;99.90
16976;DHT22;8604;48.148;-1.786;2023-07-13T02:23:34;16.30;99.90
16976;DHT22;8604;48.148;-1.786;2023-07-13T02:26:03;16.40;99.90
16976;DHT22;8604;48.148;-1.786;2023-07-13T02:28:33;16.40;99.90
16976;DHT22;8604;48.148;-1.786;2023-07-13T02:31:06;16.40;99.90
16976;DHT22;8604;48.148;-1.786;2023-07-13T02:33:34;16.40;99.90
16976;DHT22;8604;48.148;-1.786;2023-07-13T02:36:03;16.40;99.90
16976;DHT22;8604;48.148;-1.786;2023-07-13T02:38:33;16.40;99.90
16976;DHT22;8604;48.148;-1.786;2023-07-13T02:41:02;16.40;99.90
16976;DHT22;8604;48.148;-1.786;2023-07-13T02:43:30;16.40;99.90
16976;DHT22;8604;48.148;-1.786;2023-07-13T02:46:01;16.40;99.90
16976;DHT22;8604;48.148;-1.786;2023-07-13T02:48:36;16.40;99.90
16976;DHT22;8604;48.148;-1.786;2023-07-13T02:51:05;16.40;99.90
16976;DHT22;8604;48.148;-1.786;2023-07-13T02:53:34;16.40;99.90
16976;DHT22;8604;48.148;-1.786;2023-07-13T02:56:03;16.40;99.90
16976;DHT22;8604;48.148;-1.786;2023-07-13T02:58:32;16.40;99.90
16976;DHT22;8604;48.148;-1.786;2023-07-13T03:01:08;16.40;99.90
16976;DHT22;8604;48.148;-1.786;2023-07-13T03:03:37;16.40;99.90
16976;DHT22;8604;48.148;-1.786;2023-07-13T03:06:06;16.40;99.90
16976;DHT22;8604;48.148;-1.786;2023-07-13T03:08:44;16.50;99.90
16976;DHT22;8604;48.148;-1.786;2023-07-13T03:11:15;16.40;99.90
16976;DHT22;8604;48.148;-1.786;2023-07-13T03:13:46;16.40;99.90
16976;DHT22;8604;48.148;-1.786;2023-07-13T03:16:16;16.40;99.90
16976;DHT22;8604;48.148;-1.786;2023-07-13T03:18:48;16.40;99.90
16976;DHT22;8604;48.148;-1.786;2023-07-13T03:21:17;16.40;99.90
16976;DHT22;8604;48.148;-1.786;2023-07-13T03:23:46;16.50;99.90
16976;DHT22;8604;48.148;-1.786;2023-07-13T03:26:18;16.50;99.90
16976;DHT22;8604;48.148;-1.786;2023-07-13T03:28:48;16.50;99.90
16976;DHT22;8604;48.148;-1.786;2023-07-13T03:31:23;16.50;99.90
16976;DHT22;8604;48.148;-1.786;2023-07-13T03:33:52;16.50;99.90
16976;DHT22;8604;48.148;-1.786;2023-07-13T03:36:22;16.50;99.90
16976;DHT22;8604;48.148;-1.786;2023-07-13T03:38:56;16.50;99.90
16976;DHT22;8604;48.148;-1.786;2023-07-13T03:41:29;16.60;99.90
16976;DHT22;8604;48.148;-1.786;2023-07-13T03:43:58;16.60;99.90
16976;DHT22;8604;48.148;-1.786;2023-07-13T03:46:29;16.60;99.90
16976;DHT22;8604;48.148;-1.786;2023-07-13T03:48:57;16.60;99.90
16976;DHT22;8604;48.148;-1.786;2023-07-13T03:51:26;16.60;99.90
16976;DHT22;8604;48.148;-1.786;2023-07-13T03:53:54;16.60;99.90
16976;DHT22;8604;48.148;-1.786;2023-07-13T03:56:23;16.60;99.90
16976;DHT22;8604;48.148;-1.786;2023-07-13T03:58:51;16.60;99.90
16976;DHT22;8604;48.148;-1.786;2023-07-13T04:01:23;16.60;99.90
16976;DHT22;8604;48.148;-1.786;2023-07-13T04:03:53;16.60;99.90
16976;DHT22;8604;48.148;-1.786;2023-07-13T04:06:26;16.60;99.90
16976;DHT22;8604;48.148;-1.786;2023-07-13T04:08:56;16.60;99.90
16976;DHT22;8604;48.148;-1.786;2023-07-13T04:11:27;16.60;99.90
16976;DHT22;8604;48.148;-1.786;2023-07-13T04:13:56;16.60;99.90
16976;DHT22;8604;48.148;-1.786;2023-07-13T04:16:25;16.70;99.90
16976;DHT22;8604;48.148;-1.786;2023-07-13T04:18:55;16.70;99.90
16976;DHT22;8604;48.148;-1.786;2023-07-13T04:21:28;16.70;99.90
16976;DHT22;8604;48.148;-1.786;2023-07-13T04:23:57;16.70;99.90
16976;DHT22;8604;48.148;-1.786;2023-07-13T04:26:26;16.70;99.90
16976;DHT22;8604;48.148;-1.786;2023-07-13T04:28:55;16.70;99.90
16976;DHT22;8604;48.148;-1.786;2023-07-13T04:31:24;16.70;99.90
16976;DHT22;8604;48.148;-1.786;2023-07-13T04:33:53;16.70;99.90
16976;DHT22;8604;48.148;-1.786;2023-07-13T04:36:22;16.70;99.90
16976;DHT22;8604;48.148;-1.786;2023-07-13T04:38:52;16.70;99.90
16976;DHT22;8604;48.148;-1.786;2023-07-13T04:41:21;16.70;99.90
16976;DHT22;8604;48.148;-1.786;2023-07-13T04:43:50;16.70;99.90
16976;DHT22;8604;48.148;-1.786;2023-07-13T04:46:21;16.70;99.90
16976;DHT22;8604;48.148;-1.786;2023-07-13T04:48:49;16.70;99.90
16976;DHT22;8604;48.148;-1.786;2023-07-13T04:51:21;16.70;99.90
16976;DHT22;8604;48.148;-1.786;2023-07-13T04:53:50;16.70;99.90
16976;DHT22;8604;48.148;-1.786;2023-07-13T04:56:25;16.70;99.90
16976;DHT22;8604;48.148;-1.786;2023-07-13T04:58:54;16.70;99.90
16976;DHT22;8604;48.148;-1.786;2023-07-13T05:01:22;16.80;99.90
16976;DHT22;8604;48.148;-1.786;2023-07-13T05:03:52;16.80;99.90
16976;DHT22;8604;48.148;-1.786;2023-07-13T05:06:23;16.80;99.90
16976;DHT22;8604;48.148;-1.786;2023-07-13T05:08:52;16.80;99.90
16976;DHT22;8604;48.148;-1.786;2023-07-13T05:11:20;16.80;99.90
16976;DHT22;8604;48.148;-1.786;2023-07-13T05:13:48;16.80;99.90
16976;DHT22;8604;48.148;-1.786;2023-07-13T05:16:17;16.90;99.90
16976;DHT22;8604;48.148;-1.786;2023-07-13T05:18:45;16.90;99.90
16976;DHT22;8604;48.148;-1.786;2023-07-13T05:21:13;16.90;99.90
16976;DHT22;8604;48.148;-1.786;2023-07-13T05:23:43;16.90;99.90
16976;DHT22;8604;48.148;-1.786;2023-07-13T05:26:12;16.90;99.90
16976;DHT22;8604;48.148;-1.786;2023-07-13T05:28:40;17.00;99.90
16976;DHT22;8604;48.148;-1.786;2023-07-13T05:31:09;17.00;99.90
16976;DHT22;8604;48.148;-1.786;2023-07-13T05:33:39;17.00;99.90
16976;DHT22;8604;48.148;-1.786;2023-07-13T05:36:07;17.00;99.90
16976;DHT22;8604;48.148;-1.786;2023-07-13T05:38:35;17.10;99.90
16976;DHT22;8604;48.148;-1.786;2023-07-13T05:41:05;17.10;99.90
16976;DHT22;8604;48.148;-1.786;2023-07-13T05:43:34;17.10;99.90
16976;DHT22;8604;48.148;-1.786;2023-07-13T05:51:02;17.10;99.90
16976;DHT22;8604;48.148;-1.786;2023-07-13T05:54:24;17.20;99.90
16976;DHT22;8604;48.148;-1.786;2023-07-13T05:57:33;17.20;99.90
16976;DHT22;8604;48.148;-1.786;2023-07-13T06:00:34;17.20;99.90
16976;DHT22;8604;48.148;-1.786;2023-07-13T06:03:35;17.30;99.90
16976;DHT22;8604;48.148;-1.786;2023-07-13T06:07:19;17.30;99.90
16976;DHT22;8604;48.148;-1.786;2023-07-13T06:09:23;17.30;99.90
16976;DHT22;8604;48.148;-1.786;2023-07-13T06:12:04;17.30;99.90
16976;DHT22;8604;48.148;-1.786;2023-07-13T06:14:55;17.40;99.90
16976;DHT22;8604;48.148;-1.786;2023-07-13T06:20:54;17.40;99.90
16976;DHT22;8604;48.148;-1.786;2023-07-13T06:24:04;17.40;99.90
16976;DHT22;8604;48.148;-1.786;2023-07-13T06:27:09;17.50;99.90
16976;DHT22;8604;48.148;-1.786;2023-07-13T06:30:06;17.60;99.90
16976;DHT22;8604;48.148;-1.786;2023-07-13T06:32:55;17.60;99.90
16976;DHT22;8604;48.148;-1.786;2023-07-13T06:36:27;17.60;99.90
16976;DHT22;8604;48.148;-1.786;2023-07-13T06:39:36;17.70;99.90
16976;DHT22;8604;48.148;-1.786;2023-07-13T06:42:38;17.80;99.90
16976;DHT22;8604;48.148;-1.786;2023-07-13T06:46:00;17.90;99.90
16976;DHT22;8604;48.148;-1.786;2023-07-13T06:49:01;17.90;99.90
16976;DHT22;8604;48.148;-1.786;2023-07-13T06:51:29;17.90;99.90
16976;DHT22;8604;48.148;-1.786;2023-07-13T06:53:58;17.90;99.90
16976;DHT22;8604;48.148;-1.786;2023-07-13T06:56:26;17.90;99.90
16976;DHT22;8604;48.148;-1.786;2023-07-13T06:58:55;18.00;99.90
16976;DHT22;8604;48.148;-1.786;2023-07-13T07:01:25;18.00;99.90
16976;DHT22;8604;48.148;-1.786;2023-07-13T07:03:54;18.00;99.90
16976;DHT22;8604;48.148;-1.786;2023-07-13T07:06:23;18.10;99.90
16976;DHT22;8604;48.148;-1.786;2023-07-13T07:08:52;18.10;99.90
16976;DHT22;8604;48.148;-1.786;2023-07-13T07:11:24;18.10;99.90
16976;DHT22;8604;48.148;-1.786;2023-07-13T07:13:53;18.20;99.90
16976;DHT22;8604;48.148;-1.786;2023-07-13T07:16:23;18.20;99.90
16976;DHT22;8604;48.148;-1.786;2023-07-13T07:18:53;18.30;99.90
16976;DHT22;8604;48.148;-1.786;2023-07-13T07:21:22;18.30;99.90
16976;DHT22;8604;48.148;-1.786;2023-07-13T07:23:52;18.40;99.90
16976;DHT22;8604;48.148;-1.786;2023-07-13T07:26:20;18.40;99.90
16976;DHT22;8604;48.148;-1.786;2023-07-13T07:28:54;18.50;99.90
16976;DHT22;8604;48.148;-1.786;2023-07-13T07:31:42;18.60;99.90
16976;DHT22;8604;48.148;-1.786;2023-07-13T07:34:15;18.70;99.90
16976;DHT22;8604;48.148;-1.786;2023-07-13T07:36:44;18.90;99.90
16976;DHT22;8604;48.148;-1.786;2023-07-13T07:39:15;18.90;99.90
16976;DHT22;8604;48.148;-1.786;2023-07-13T07:41:44;19.10;99.90
16976;DHT22;8604;48.148;-1.786;2023-07-13T07:44:23;19.10;99.90
16976;DHT22;8604;48.148;-1.786;2023-07-13T07:46:53;19.30;99.90
16976;DHT22;8604;48.148;-1.786;2023-07-13T07:49:23;19.30;99.90
16976;DHT22;8604;48.148;-1.786;2023-07-13T07:51:52;19.30;99.90
16976;DHT22;8604;48.148;-1.786;2023-07-13T07:54:20;19.50;99.90
16976;DHT22;8604;48.148;-1.786;2023-07-13T07:57:09;19.60;99.90
16976;DHT22;8604;48.148;-1.786;2023-07-13T07:59:40;19.90;99.90
16976;DHT22;8604;48.148;-1.786;2023-07-13T08:02:12;20.20;99.90
16976;DHT22;8604;48.148;-1.786;2023-07-13T08:05:02;20.50;99.90
16976;DHT22;8604;48.148;-1.786;2023-07-13T08:07:34;20.70;99.90
16976;DHT22;8604;48.148;-1.786;2023-07-13T08:10:02;20.70;99.90
16976;DHT22;8604;48.148;-1.786;2023-07-13T08:12:34;20.70;99.90
16976;DHT22;8604;48.148;-1.786;2023-07-13T08:15:07;20.70;99.90
16976;DHT22;8604;48.148;-1.786;2023-07-13T08:17:37;20.90;99.90
16976;DHT22;8604;48.148;-1.786;2023-07-13T08:20:08;21.10;99.90
16976;DHT22;8604;48.148;-1.786;2023-07-13T08:22:37;21.40;99.90
16976;DHT22;8604;48.148;-1.786;2023-07-13T08:25:07;21.80;99.90
16976;DHT22;8604;48.148;-1.786;2023-07-13T08:27:35;21.80;99.90
16976;DHT22;8604;48.148;-1.786;2023-07-13T08:30:05;21.80;99.90
16976;DHT22;8604;48.148;-1.786;2023-07-13T08:32:36;21.90;99.90
16976;DHT22;8604;48.148;-1.786;2023-07-13T08:35:07;22.40;99.90
16976;DHT22;8604;48.148;-1.786;2023-07-13T08:37:36;22.70;99.90
16976;DHT22;8604;48.148;-1.786;2023-07-13T08:40:07;22.90;99.90
16976;DHT22;8604;48.148;-1.786;2023-07-13T08:42:39;23.60;99.90
16976;DHT22;8604;48.148;-1.786;2023-07-13T08:45:17;24.20;99.90
16976;DHT22;8604;48.148;-1.786;2023-07-13T08:47:52;24.30;99.90
16976;DHT22;8604;48.148;-1.786;2023-07-13T08:50:27;25.50;99.90
16976;DHT22;8604;48.148;-1.786;2023-07-13T08:53:00;26.30;99.90
16976;DHT22;8604;48.148;-1.786;2023-07-13T08:55:33;26.40;99.90
16976;DHT22;8604;48.148;-1.786;2023-07-13T08:58:10;27.30;99.90
16976;DHT22;8604;48.148;-1.786;2023-07-13T09:00:46;27.80;99.90
16976;DHT22;8604;48.148;-1.786;2023-07-13T09:03:21;27.90;99.90
16976;DHT22;8604;48.148;-1.786;2023-07-13T09:05:54;28.10;99.90
16976;DHT22;8604;48.148;-1.786;2023-07-13T09:08:49;28.70;99.90
16976;DHT22;8604;48.148;-1.786;2023-07-13T09:11:32;28.80;99.90
16976;DHT22;8604;48.148;-1.786;2023-07-13T09:14:23;28.70;99.90
16976;DHT22;8604;48.148;-1.786;2023-07-13T09:16:55;29.00;99.90
16976;DHT22;8604;48.148;-1.786;2023-07-13T09:19:27;29.20;99.90
16976;DHT22;8604;48.148;-1.786;2023-07-13T09:21:59;28.90;99.90
16976;DHT22;8604;48.148;-1.786;2023-07-13T09:24:36;28.00;99.90
16976;DHT22;8604;48.148;-1.786;2023-07-13T09:27:14;27.10;99.90
16976;DHT22;8604;48.148;-1.786;2023-07-13T09:29:48;26.60;99.90
16976;DHT22;8604;48.148;-1.786;2023-07-13T09:32:21;26.40;99.90
16976;DHT22;8604;48.148;-1.786;2023-07-13T09:34:52;26.80;99.90
16976;DHT22;8604;48.148;-1.786;2023-07-13T09:37:27;27.00;99.90
16976;DHT22;8604;48.148;-1.786;2023-07-13T09:39:58;26.30;99.90
16976;DHT22;8604;48.148;-1.786;2023-07-13T09:42:28;25.90;99.90
16976;DHT22;8604;48.148;-1.786;2023-07-13T09:44:58;25.90;99.90
16976;DHT22;8604;48.148;-1.786;2023-07-13T09:47:28;26.00;99.90
16976;DHT22;8604;48.148;-1.786;2023-07-13T09:49:59;26.00;99.90
16976;DHT22;8604;48.148;-1.786;2023-07-13T09:52:41;26.30;99.90
16976;DHT22;8604;48.148;-1.786;2023-07-13T09:55:24;26.50;99.90
16976;DHT22;8604;48.148;-1.786;2023-07-13T09:57:53;26.40;99.90
16976;DHT22;8604;48.148;-1.786;2023-07-13T10:00:24;26.30;99.90
16976;DHT22;8604;48.148;-1.786;2023-07-13T10:03:01;26.20;99.90
16976;DHT22;8604;48.148;-1.786;2023-07-13T10:05:39;26.20;99.90
16976;DHT22;8604;48.148;-1.786;2023-07-13T10:08:17;26.30;99.90
16976;DHT22;8604;48.148;-1.786;2023-07-13T10:10:52;26.40;99.90
16976;DHT22;8604;48.148;-1.786;2023-07-13T10:13:34;26.60;99.90
16976;DHT22;8604;48.148;-1.786;2023-07-13T10:16:05;26.40;99.90
16976;DHT22;8604;48.148;-1.786;2023-07-13T10:18:39;26.30;99.90
16976;DHT22;8604;48.148;-1.786;2023-07-13T10:21:14;26.10;99.90
16976;DHT22;8604;48.148;-1.786;2023-07-13T10:23:56;26.10;99.90
16976;DHT22;8604;48.148;-1.786;2023-07-13T10:26:31;26.10;99.90
16976;DHT22;8604;48.148;-1.786;2023-07-13T10:29:04;26.10;99.90
16976;DHT22;8604;48.148;-1.786;2023-07-13T10:31:37;26.10;99.90
16976;DHT22;8604;48.148;-1.786;2023-07-13T10:34:09;26.20;99.90
16976;DHT22;8604;48.148;-1.786;2023-07-13T10:36:40;26.30;99.90
16976;DHT22;8604;48.148;-1.786;2023-07-13T10:39:17;26.30;99.90
16976;DHT22;8604;48.148;-1.786;2023-07-13T10:41:49;26.60;99.90
16976;DHT22;8604;48.148;-1.786;2023-07-13T10:44:22;26.90;99.90
16976;DHT22;8604;48.148;-1.786;2023-07-13T10:47:00;26.60;99.90
16976;DHT22;8604;48.148;-1.786;2023-07-13T10:49:31;26.30;99.90
16976;DHT22;8604;48.148;-1.786;2023-07-13T10:52:00;26.10;99.90
16976;DHT22;8604;48.148;-1.786;2023-07-13T10:54:31;26.20;99.90
16976;DHT22;8604;48.148;-1.786;2023-07-13T10:57:18;26.30;99.90
16976;DHT22;8604;48.148;-1.786;2023-07-13T10:59:49;26.60;99.90
16976;DHT22;8604;48.148;-1.786;2023-07-13T11:02:40;26.70;99.90
16976;DHT22;8604;48.148;-1.786;2023-07-13T11:05:25;26.60;99.90
16976;DHT22;8604;48.148;-1.786;2023-07-13T11:08:12;26.30;99.90
16976;DHT22;8604;48.148;-1.786;2023-07-13T11:10:51;26.20;99.90
16976;DHT22;8604;48.148;-1.786;2023-07-13T11:13:56;26.20;99.90
16976;DHT22;8604;48.148;-1.786;2023-07-13T11:16:38;26.20;99.90
16976;DHT22;8604;48.148;-1.786;2023-07-13T11:19:38;26.20;99.90
16976;DHT22;8604;48.148;-1.786;2023-07-13T11:22:19;26.00;99.90
16976;DHT22;8604;48.148;-1.786;2023-07-13T11:24:58;26.30;99.90
16976;DHT22;8604;48.148;-1.786;2023-07-13T11:27:41;26.30;99.90
16976;DHT22;8604;48.148;-1.786;2023-07-13T11:30:25;26.30;99.90
16976;DHT22;8604;48.148;-1.786;2023-07-13T11:33:08;26.40;99.90
16976;DHT22;8604;48.148;-1.786;2023-07-13T11:35:45;26.40;99.90
16976;DHT22;8604;48.148;-1.786;2023-07-13T11:38:17;26.50;99.90
16976;DHT22;8604;48.148;-1.786;2023-07-13T11:40:48;26.10;99.90
16976;DHT22;8604;48.148;-1.786;2023-07-13T11:43:24;26.00;99.90
16976;DHT22;8604;48.148;-1.786;2023-07-13T11:45:53;25.80;99.90
16976;DHT22;8604;48.148;-1.786;2023-07-13T11:48:24;25.80;99.90
16976;DHT22;8604;48.148;-1.786;2023-07-13T11:50:57;25.70;99.90
16976;DHT22;8604;48.148;-1.786;2023-07-13T11:53:29;25.40;99.90
16976;DHT22;8604;48.148;-1.786;2023-07-13T11:55:58;25.30;99.90
16976;DHT22;8604;48.148;-1.786;2023-07-13T11:58:28;25.30;99.90
16976;DHT22;8604;48.148;-1.786;2023-07-13T12:00:59;25.30;99.90
16976;DHT22;8604;48.148;-1.786;2023-07-13T12:03:33;25.50;99.90
16976;DHT22;8604;48.148;-1.786;2023-07-13T12:06:05;25.70;99.90
16976;DHT22;8604;48.148;-1.786;2023-07-13T12:08:38;25.90;99.90
16976;DHT22;8604;48.148;-1.786;2023-07-13T12:11:15;25.70;99.90
16976;DHT22;8604;48.148;-1.786;2023-07-13T12:13:46;25.60;99.90
16976;DHT22;8604;48.148;-1.786;2023-07-13T12:16:28;25.50;99.90
16976;DHT22;8604;48.148;-1.786;2023-07-13T12:19:01;25.40;99.90
16976;DHT22;8604;48.148;-1.786;2023-07-13T12:21:32;25.50;99.90
16976;DHT22;8604;48.148;-1.786;2023-07-13T12:24:03;25.60;99.90
16976;DHT22;8604;48.148;-1.786;2023-07-13T12:26:32;25.70;99.90
16976;DHT22;8604;48.148;-1.786;2023-07-13T12:29:05;25.70;99.90
16976;DHT22;8604;48.148;-1.786;2023-07-13T12:31:36;25.60;99.90
16976;DHT22;8604;48.148;-1.786;2023-07-13T12:34:08;25.60;99.90
16976;DHT22;8604;48.148;-1.786;2023-07-13T12:36:41;25.60;99.90
16976;DHT22;8604;48.148;-1.786;2023-07-13T12:39:15;25.50;99.90
16976;DHT22;8604;48.148;-1.786;2023-07-13T12:41:44;25.40;99.90
16976;DHT22;8604;48.148;-1.786;2023-07-13T12:44:16;25.40;99.90
16976;DHT22;8604;48.148;-1.786;2023-07-13T12:46:57;25.70;99.90
16976;DHT22;8604;48.148;-1.786;2023-07-13T12:49:32;25.70;99.90
16976;DHT22;8604;48.148;-1.786;2023-07-13T12:52:09;25.60;99.90
16976;DHT22;8604;48.148;-1.786;2023-07-13T12:54:41;25.80;99.90
16976;DHT22;8604;48.148;-1.786;2023-07-13T12:57:22;26.00;99.90
16976;DHT22;8604;48.148;-1.786;2023-07-13T12:59:54;26.10;99.90
16976;DHT22;8604;48.148;-1.786;2023-07-13T13:02:29;26.40;99.90
16976;DHT22;8604;48.148;-1.786;2023-07-13T13:04:59;26.20;99.90
16976;DHT22;8604;48.148;-1.786;2023-07-13T13:07:27;26.20;99.90
16976;DHT22;8604;48.148;-1.786;2023-07-13T13:09:56;26.10;99.90
16976;DHT22;8604;48.148;-1.786;2023-07-13T13:12:25;26.20;99.90
16976;DHT22;8604;48.148;-1.786;2023-07-13T13:14:56;26.30;99.90
16976;DHT22;8604;48.148;-1.786;2023-07-13T13:17:28;26.40;99.90
16976;DHT22;8604;48.148;-1.786;2023-07-13T13:19:57;26.50;99.90
16976;DHT22;8604;48.148;-1.786;2023-07-13T13:22:26;26.40;99.90
16976;DHT22;8604;48.148;-1.786;2023-07-13T13:24:55;26.40;99.90
16976;DHT22;8604;48.148;-1.786;2023-07-13T13:27:23;26.20;99.90
16976;DHT22;8604;48.148;-1.786;2023-07-13T13:29:53;26.20;99.90
16976;DHT22;8604;48.148;-1.786;2023-07-13T13:32:23;26.20;99.90
16976;DHT22;8604;48.148;-1.786;2023-07-13T13:34:51;26.40;99.90
16976;DHT22;8604;48.148;-1.786;2023-07-13T13:37:22;26.50;99.90
16976;DHT22;8604;48.148;-1.786;2023-07-13T13:39:52;26.70;99.90
16976;DHT22;8604;48.148;-1.786;2023-07-13T13:42:35;26.70;99.90
16976;DHT22;8604;48.148;-1.786;2023-07-13T13:45:05;26.70;99.90
16976;DHT22;8604;48.148;-1.786;2023-07-13T13:47:35;26.60;99.90
16976;DHT22;8604;48.148;-1.786;2023-07-13T13:50:12;26.60;99.90
16976;DHT22;8604;48.148;-1.786;2023-07-13T13:52:42;26.40;99.90
16976;DHT22;8604;48.148;-1.786;2023-07-13T13:55:13;26.10;99.90
16976;DHT22;8604;48.148;-1.786;2023-07-13T13:57:42;26.10;99.90
16976;DHT22;8604;48.148;-1.786;2023-07-13T14:00:12;26.00;99.90
16976;DHT22;8604;48.148;-1.786;2023-07-13T14:02:46;26.10;99.90
16976;DHT22;8604;48.148;-1.786;2023-07-13T14:05:22;26.20;99.90
16976;DHT22;8604;48.148;-1.786;2023-07-13T14:07:53;26.10;99.90
16976;DHT22;8604;48.148;-1.786;2023-07-13T14:10:23;25.90;99.90
16976;DHT22;8604;48.148;-1.786;2023-07-13T14:12:54;25.70;99.90
16976;DHT22;8604;48.148;-1.786;2023-07-13T14:15:27;25.50;99.90
16976;DHT22;8604;48.148;-1.786;2023-07-13T14:17:59;25.50;99.90
16976;DHT22;8604;48.148;-1.786;2023-07-13T14:20:28;25.50;99.90
16976;DHT22;8604;48.148;-1.786;2023-07-13T14:22:57;25.60;99.90
16976;DHT22;8604;48.148;-1.786;2023-07-13T14:25:26;25.70;99.90
16976;DHT22;8604;48.148;-1.786;2023-07-13T14:27:58;25.70;99.90
16976;DHT22;8604;48.148;-1.786;2023-07-13T14:30:28;25.70;99.90
16976;DHT22;8604;48.148;-1.786;2023-07-13T14:32:56;25.80;99.90
16976;DHT22;8604;48.148;-1.786;2023-07-13T14:35:26;25.80;99.90
16976;DHT22;8604;48.148;-1.786;2023-07-13T14:37:55;25.70;99.90
16976;DHT22;8604;48.148;-1.786;2023-07-13T14:40:28;25.90;99.90
16976;DHT22;8604;48.148;-1.786;2023-07-13T14:42:57;26.10;99.90
16976;DHT22;8604;48.148;-1.786;2023-07-13T14:45:26;26.20;99.90
16976;DHT22;8604;48.148;-1.786;2023-07-13T14:47:56;26.30;99.90
16976;DHT22;8604;48.148;-1.786;2023-07-13T14:50:30;26.30;99.90
16976;DHT22;8604;48.148;-1.786;2023-07-13T14:52:59;26.20;99.90
16976;DHT22;8604;48.148;-1.786;2023-07-13T14:55:27;26.10;99.90
16976;DHT22;8604;48.148;-1.786;2023-07-13T14:57:56;26.20;99.90
16976;DHT22;8604;48.148;-1.786;2023-07-13T15:00:25;26.20;99.90
16976;DHT22;8604;48.148;-1.786;2023-07-13T15:02:57;26.40;99.90
16976;DHT22;8604;48.148;-1.786;2023-07-13T15:05:30;26.40;99.90
16976;DHT22;8604;48.148;-1.786;2023-07-13T15:08:00;26.40;99.90
16976;DHT22;8604;48.148;-1.786;2023-07-13T15:10:31;26.40;99.90
16976;DHT22;8604;48.148;-1.786;2023-07-13T15:13:01;26.40;99.90
16976;DHT22;8604;48.148;-1.786;2023-07-13T15:15:42;26.50;99.90
16976;DHT22;8604;48.148;-1.786;2023-07-13T15:18:12;26.60;99.90
16976;DHT22;8604;48.148;-1.786;2023-07-13T15:20:43;26.70;99.90
16976;DHT22;8604;48.148;-1.786;2023-07-13T15:23:14;26.40;99.90
16976;DHT22;8604;48.148;-1.786;2023-07-13T15:25:44;26.10;99.90
16976;DHT22;8604;48.148;-1.786;2023-07-13T15:28:13;26.20;99.90
16976;DHT22;8604;48.148;-1.786;2023-07-13T15:30:45;26.20;99.90
16976;DHT22;8604;48.148;-1.786;2023-07-13T15:33:20;26.30;99.90
16976;DHT22;8604;48.148;-1.786;2023-07-13T15:35:52;26.20;99.90
16976;DHT22;8604;48.148;-1.786;2023-07-13T15:38:23;26.10;99.90
16976;DHT22;8604;48.148;-1.786;2023-07-13T15:40:53;26.00;99.90
16976;DHT22;8604;48.148;-1.786;2023-07-13T15:43:22;25.90;99.90
16976;DHT22;8604;48.148;-1.786;2023-07-13T15:45:51;25.80;99.90
16976;DHT22;8604;48.148;-1.786;2023-07-13T15:48:21;25.70;99.90
16976;DHT22;8604;48.148;-1.786;2023-07-13T15:50:53;25.80;99.90
16976;DHT22;8604;48.148;-1.786;2023-07-13T15:53:23;25.90;99.90
16976;DHT22;8604;48.148;-1.786;2023-07-13T15:55:53;25.90;99.90
16976;DHT22;8604;48.148;-1.786;2023-07-13T15:58:22;26.00;99.90
16976;DHT22;8604;48.148;-1.786;2023-07-13T16:00:52;26.00;99.90
16976;DHT22;8604;48.148;-1.786;2023-07-13T16:03:21;26.00;99.90
16976;DHT22;8604;48.148;-1.786;2023-07-13T16:05:52;25.90;99.90
16976;DHT22;8604;48.148;-1.786;2023-07-13T16:08:25;25.80;99.90
16976;DHT22;8604;48.148;-1.786;2023-07-13T16:10:55;25.80;99.90
16976;DHT22;8604;48.148;-1.786;2023-07-13T16:13:24;25.90;99.90
16976;DHT22;8604;48.148;-1.786;2023-07-13T16:15:53;25.90;99.90